TimeMST,TemperatureF,Dew PointF,Humidity,Sea Level PressureIn,VisibilityMPH,Wind Direction,Wind SpeedMPH,Gust SpeedMPH,PrecipitationIn,Events,Conditions,WindDirDegrees,DateUTC
12:51 AM,34.0,32.0,92,29.95,-9999.0,ESE,3.5,-,0.02,,Unknown,120,2013-03-03 07:51:00
1:51 AM,34.0,32.0,92,29.90,-9999.0,SSE,5.8,-,0.01,,Unknown,150,2013-03-03 08:51:00
2:51 AM,33.1,32.0,96,29.86,-9999.0,ESE,4.6,-,0.01,,Unknown,120,2013-03-03 09:51:00
3:51 AM,33.1,32.0,96,29.82,-9999.0,South,5.8,-,0.01,,Unknown,170,2013-03-03 10:51:00
4:51 AM,33.1,32.0,96,29.80,-9999.0,East,3.5,-,0.01,,Unknown,100,2013-03-03 11:51:00
5:51 AM,33.1,32.0,96,29.81,-9999.0,North,3.5,-,0.02,,Unknown,350,2013-03-03 12:51:00
6:51 AM,33.1,30.0,89,29.81,-9999.0,Calm,Calm,-,0.04,,Unknown,0,2013-03-03 13:51:00
7:51 AM,32.0,30.9,96,29.80,-9999.0,Calm,Calm,-,0.01,,Unknown,0,2013-03-03 14:51:00
8:51 AM,33.1,25.0,72,29.80,-9999.0,NNW,4.6,-,N/A,,Unknown,340,2013-03-03 15:51:00
9:51 AM,33.1,23.0,66,29.80,-9999.0,NNW,4.6,-,N/A,,Unknown,330,2013-03-03 16:51:00
10:51 AM,34.0,23.0,64,29.79,-9999.0,Calm,Calm,-,N/A,,Unknown,0,2013-03-03 17:51:00
11:51 AM,35.1,19.0,52,29.78,-9999.0,ENE,4.6,-,N/A,,Unknown,60,2013-03-03 18:51:00
12:51 PM,35.1,17.1,48,29.79,-9999.0,North,9.2,-,N/A,,Unknown,10,2013-03-03 19:51:00
1:51 PM,34.0,12.0,40,29.79,-9999.0,Calm,Calm,-,N/A,,Unknown,0,2013-03-03 20:51:00
2:51 PM,34.0,9.0,35,29.78,-9999.0,Variable,3.5,-,N/A,,Unknown,0,2013-03-03 21:51:00
3:51 PM,32.0,7.0,35,29.79,-9999.0,NNW,13.8,21.9,N/A,,Unknown,330,2013-03-03 22:51:00
4:51 PM,30.9,5.0,33,29.81,-9999.0,NW,11.5,24.2,N/A,,Unknown,310,2013-03-03 23:51:00
5:51 PM,28.0,3.0,34,29.84,-9999.0,West,8.1,19.6,N/A,,Unknown,280,2013-03-04 00:51:00
6:51 PM,23.0,3.9,44,29.90,-9999.0,NNW,11.5,20.7,N/A,,Unknown,330,2013-03-04 01:51:00
7:51 PM,21.0,-0.0,40,29.93,-9999.0,NNW,4.6,-,N/A,,Unknown,330,2013-03-04 02:51:00
8:51 PM,19.0,-0.0,43,29.95,-9999.0,NNW,4.6,-,N/A,,Unknown,330,2013-03-04 03:51:00
9:51 PM,15.1,1.0,54,29.98,-9999.0,NNW,3.5,-,N/A,,Unknown,340,2013-03-04 04:51:00
10:51 PM,14.0,-0.0,54,29.99,-9999.0,Calm,Calm,-,N/A,,Unknown,0,2013-03-04 05:51:00
11:51 PM,10.0,-0.9,61,30.01,-9999.0,Calm,Calm,-,N/A,,Unknown,0,2013-03-04 06:51:00